FQCH

Chimoio Airport

Chimoio, Mozambique
METAR FQCH 231300Z 33004KT 9999 BKN015 FEW020CB 27/21 Q1013 RMK CB TO W/N
Observed Flight Rules
Feb-23 @ 13:00 UTC (an hour ago) Marginal Visual Flight Rules
Wind Visibility Clouds
330° at 4 knots 10,000+ meters
  • Broken at 1,500' AGL
  • Few at 2,000' AGL
Temperatures Readings
Current 27°C / 81°F
Dewpoint 21°C / 70°F
Humidity 70%
Altimeter 29.91" Hg
Pressure 1013 hPa
Elevation 732
METAR FQCH 231300Z 33004KT 9999 BKN015 FEW020CB 27/21 Q1013 RMK CB TO W/N
Observed Flight Rules
Feb-23 @ 13:00 UTC
(an hour ago)
MVFR
Wind Visibility
330° at 4 knots 10,000+ meters
Clouds
  • Broken at 1,500' AGL
  • Few at 2,000' AGL
Temperature Dewpoint
27°C / 81°F 21°C / 70°F
Humidity Altimeter Pressure
70% 29.91" Hg 1013 hPa